메인 페이지
METAR-TAF:

METAR-TAF

공항 :

베나지르 부토 국제공항

이슬라마바드, 파키스탄

위도: 33-37N, 경도: 073-06E, 고도: 507m

현재 날씨관측

예보는 45분 전, 23:00시(UTC)에 발표되었습니다.
10kt
온도 26°C
습도 37%
기압 1004 hPa
시정 10km 이상
1500m 미만 상공 구름 및 적란운 없음

METAR: OPRN 262300Z 09010KT CAVOK 26/10 Q1004 NOSIG RMK A2965

시각: 04:45 (23:45 UTC)

예보

예보는 2 시간 15분 전, 21:30시(UTC)에 발표되었습니다.
예보 대상 시간: 27일 00시부터 28일 06시까지 (UTC)
서북서10kt
시정: 7000m
일시적
27일 00시부터 27일 04시까지 (UTC)
시정: 4000m
연무
전환 중
27일 05시부터 27일 07시까지 (UTC)
서북서10kt, 순간 최대 풍속 20kt
시정 10km 이상
고도 4000ft 상공 구름 조금
고도 10000ft 상공 구름 보통
확률 %
30시부터 시까지 (UTC)
일시적
27일 09시부터 27일 13시까지 (UTC)
북서10kt, 순간 최대 풍속 30kt
시정: 4000m
고도 4000ft 상공 구름 보통
시계 내 뇌우
전환 중
27일 14시부터 27일 16시까지 (UTC)
북북서10kt
시정: 7000m

TAF: OPRN 262130Z 2700/2806 30010KT 7000 NSC TEMPO 2700/2704 4000 HZ BECMG 2705/2707 30010G20KT 9999 FEW040 SCT100 PROB 30 TEMPO 2709/2713 32010G30KT 4000 VCTS FEW030TCU/CB SCT040 BECMG 2714/2716 33010KT 7000 NSC

4,000개 이상의 공항 관측 자료 및 예보 (METAR 및 TAF 보고).

지도상에서 검색 가능한 기상관측소가 노란 점과 빨간 점으로 표시되어 있습니다.

기상관측소 명을 보려면 표시 위로 마우스를 이동하세요.

날씨 관측과 예보를 보려면 클릭하세요.

지도 변경 : 확대하려면 엑스 표시가 있는 녹색 버튼, 축소하려면 빼기 표시가 있는 녹색 버튼, 다음 페이지의 지도를 보려면 녹색 화살표를 클릭하세요.


METAR-TAF: